Melbourne, FL

11:44 AM EDT on September 05, 2015 (GMT -0400)
Timber Ridge | | Change Station
CLOSE
Current Station
Personal Weather Station
Location: West Melbourne, FL
Elevation: 33 ft
Nearby Weather Stations

Elev 33 ft 28.07 °N, 80.65 °W | Updated 3 minutes ago

Scattered Clouds
Scattered Clouds
85.5 °F
Feels Like 95 °F
N
1.0
Wind Variable Wind from NW
Gusts 5.0 mph

Today
High -- | Low -- °F
--% Chance of Precip.
Yesterday
High -- | Low -- °F
Precip. -- in
7:02 AM 7:39 PM
Waning Gibbous, 47% visible
Pressure 30.03 in
Visibility 10.0 miles
Clouds Scattered Clouds 2000 ft
Heat Index 95 °F
Dew Point 76 °F
Humidity 73%
Rainfall 0.00 in
Snow Depth Not available.
UV 7 out of 12
Pollen 6.60 out of 12
Air Quality Not available.
Flu Activity Not available.
METAR KMLB 051453Z 34005KT 10SM SCT020 30/24 A3003 RMK AO2 LTG DSNT NE SLP167 T03000244 53013
Pressure 30.03 in
Visibility 10.0 miles
Clouds Scattered Clouds 2000 ft
Heat Index 95 °F
Dew Point 76 °F
Humidity 73%
Rainfall 0.00 in
Snow Depth Not available.
UV 7 out of 12
Pollen 6.60 out of 12
Air Quality Not available.
Flu Activity Not available.
METAR KMLB 051453Z 34005KT 10SM SCT020 30/24 A3003 RMK AO2 LTG DSNT NE SLP167 T03000244 53013
Nowcast | as of 10:12 am EDT on September 5, 2015

Scattered lightning storms are expected to develop just inland from the coast through early afternoon as the East Coast sea breeze develops. Slow storm motion toward the south at 10 mph will produce locally heavy rainfall which will cause temporary minor flooding of low lying and poor drainage areas. Storm coverage will increase this afternoon over the interior from Lake County southward across the Orlando Metro to Okeechobee. Dangerous lightning strikes will be the primary threat. Additional details...including graphics are available online at: http://www.Srh.NOAA.Gov/mlb/blog.Php

×

10-Day Weather Forecast

×

Almanac

Astronomy

Sep. 05, 2015 Rise Set
Actual Time
Civil Twilight
Nautical Twilight
Astronomical Twilight
Moon
Length of Visible Light
Length of Day
Tomorrow will be .
, % of the Moon is Illuminated

Today's Extremes

State Highs State Lows

Community

WunderPhotos

Upload Photos

1,852,483 photos uploaded!

WunderBlogs® & News

Nearby

Air Quality

  Air Quality AQ Index Pollutant
Not available.

Snow Depth

Station Depth Elevation

Earthquake Activity

City Distance Mag. Time & Date
Minimum magnitude displayed is 2.5.

Coastal Water Temperatures

Place Temperature

Stations

Nearby Weather Stations

Station Location Temp. Windchill Dew Point Humidity Wind Precip. Elev Updated Type